createdAt,value
2019-03-21T00:00:05.681Z,102832.63
2019-03-21T00:01:43.708Z,102836.17
2019-03-21T00:03:18.863Z,102831.88
2019-03-21T00:04:56.494Z,102838.27
2019-03-21T00:06:31.741Z,102833.94
2019-03-21T00:08:08.725Z,102836.77
2019-03-21T00:10:37.056Z,102846.61
2019-03-21T00:12:12.262Z,102839.44
2019-03-21T00:13:47.449Z,102835.12
2019-03-21T00:15:26.782Z,102842.95
2019-03-21T00:17:02.302Z,102838.38
2019-03-21T00:18:37.565Z,102840.30
2019-03-21T00:20:16.836Z,102836.46
2019-03-21T00:21:52.022Z,102835.64
2019-03-21T00:23:27.241Z,102837.80
2019-03-21T00:25:02.453Z,102834.14
2019-03-21T00:26:38.615Z,102834.21
2019-03-21T00:28:13.806Z,102833.77
2019-03-21T00:29:49.016Z,102837.53
2019-03-21T00:31:24.199Z,102832.74
2019-03-21T00:32:59.387Z,102831.27
2019-03-21T00:34:34.629Z,102834.14
2019-03-21T00:36:09.802Z,102835.24
2019-03-21T00:37:45.025Z,102832.12
2019-03-21T00:39:20.209Z,102834.80
2019-03-21T00:40:55.430Z,102828.88
2019-03-21T00:42:30.626Z,102832.92
2019-03-21T00:44:06.009Z,102825.30
2019-03-21T00:45:41.203Z,102824.64
2019-03-21T00:47:16.384Z,102830.73
2019-03-21T00:48:51.575Z,102825.53
2019-03-21T00:50:26.952Z,102818.88
2019-03-21T00:52:03.262Z,102818.19
2019-03-21T00:53:38.459Z,102819.94
2019-03-21T00:55:13.774Z,102814.39
2019-03-21T00:56:48.972Z,102816.86
2019-03-21T00:58:24.173Z,102816.87
2019-03-21T00:59:59.365Z,102816.28
2019-03-21T01:01:34.603Z,102817.44
2019-03-21T01:03:10.922Z,102816.97
2019-03-21T01:04:46.128Z,102808.77
2019-03-21T01:06:21.381Z,102812.91
2019-03-21T01:07:56.566Z,102810.55
2019-03-21T01:09:31.773Z,102814.48
2019-03-21T01:11:07.072Z,102813.58
2019-03-21T01:12:44.711Z,102813.28
2019-03-21T01:14:29.428Z,102812.80
2019-03-21T01:15:56.879Z,102810.92
2019-03-21T01:17:33.018Z,102810.71
2019-03-21T01:19:08.282Z,102797.45
2019-03-21T01:20:43.491Z,102800.81
2019-03-21T01:22:19.004Z,102802.14
2019-03-21T01:23:54.201Z,102802.72
2019-03-21T01:25:32.905Z,102807.81
2019-03-21T01:27:08.212Z,102798.05
2019-03-21T01:28:43.387Z,102800.20
2019-03-21T01:30:19.746Z,102796.51
2019-03-21T01:31:54.963Z,102791.76
2019-03-21T01:33:30.149Z,102794.15
2019-03-21T01:35:05.625Z,102790.36
2019-03-21T01:36:40.831Z,102796.41
2019-03-21T01:38:17.326Z,102793.53
2019-03-21T01:39:52.508Z,102795.16
2019-03-21T01:41:27.755Z,102797.39
2019-03-21T01:43:02.941Z,102791.89
2019-03-21T01:44:41.260Z,102791.08
2019-03-21T01:46:15.676Z,102789.98
2019-03-21T01:47:51.623Z,102790.53
2019-03-21T01:49:26.805Z,102787.29
2019-03-21T01:51:02.050Z,102790.36
2019-03-21T01:52:37.241Z,102793.02
2019-03-21T01:54:12.434Z,102786.88
2019-03-21T01:55:47.630Z,102787.77
2019-03-21T01:57:22.897Z,102778.27
2019-03-21T01:58:58.431Z,102777.75
2019-03-21T02:00:35.645Z,102769.93
2019-03-21T02:02:11.128Z,102773.30
2019-03-21T02:03:46.345Z,102775.77
2019-03-21T02:05:21.649Z,102769.16
2019-03-21T02:06:56.817Z,102772.50
2019-03-21T02:08:32.000Z,102762.89
2019-03-21T02:10:09.895Z,102763.91
2019-03-21T02:11:45.128Z,102769.17
2019-03-21T02:13:20.304Z,102763.27
2019-03-21T02:14:55.486Z,102762.39
2019-03-21T02:16:30.669Z,102758.22
2019-03-21T02:18:06.273Z,102761.53
2019-03-21T02:19:41.436Z,102757.92
2019-03-21T02:21:16.651Z,102760.88
2019-03-21T02:22:51.827Z,102759.89
2019-03-21T02:24:27.005Z,102756.92
2019-03-21T02:26:02.212Z,102753.41
2019-03-21T02:27:37.430Z,102755.59
2019-03-21T02:29:12.627Z,102749.85
2019-03-21T02:30:47.961Z,102760.38
2019-03-21T02:32:23.172Z,102755.11
2019-03-21T02:33:58.520Z,102761.78
2019-03-21T02:35:33.725Z,102755.41
2019-03-21T02:37:08.943Z,102757.09
2019-03-21T02:38:44.127Z,102755.48
2019-03-21T02:40:21.340Z,102762.01
2019-03-21T02:41:56.572Z,102754.90
2019-03-21T02:43:31.781Z,102749.17
2019-03-21T02:45:09.458Z,102754.77
2019-03-21T02:46:44.907Z,102759.59
2019-03-21T02:48:20.265Z,102754.09
2019-03-21T02:49:55.465Z,102759.05
2019-03-21T02:51:30.719Z,102751.36
2019-03-21T02:53:05.984Z,102751.70
2019-03-21T02:54:41.210Z,102752.63
2019-03-21T02:56:17.175Z,102752.25
2019-03-21T02:57:52.394Z,102753.34
2019-03-21T02:59:27.566Z,102746.65
2019-03-21T03:01:02.858Z,102753.55
2019-03-21T03:02:38.036Z,102754.37
2019-03-21T03:04:13.229Z,102756.72
2019-03-21T03:05:48.427Z,102759.18
2019-03-21T03:07:23.631Z,102751.53
2019-03-21T03:08:58.820Z,102756.96
2019-03-21T03:10:36.712Z,102755.36
2019-03-21T03:12:11.923Z,102752.14
2019-03-21T03:13:48.216Z,102756.72
2019-03-21T03:15:24.367Z,102753.75
2019-03-21T03:16:59.640Z,102758.02
2019-03-21T03:18:34.911Z,102747.97
2019-03-21T03:20:12.169Z,102756.28
2019-03-21T03:21:47.347Z,102752.31
2019-03-21T03:23:22.613Z,102756.21
2019-03-21T03:24:57.819Z,102758.77
2019-03-21T03:26:33.014Z,102755.02
2019-03-21T03:28:14.339Z,102750.34
2019-03-21T03:29:49.555Z,102756.92
2019-03-21T03:31:24.788Z,102754.77
2019-03-21T03:33:00.017Z,102758.73
2019-03-21T03:34:35.219Z,102751.09
2019-03-21T03:36:10.578Z,102755.22
2019-03-21T03:37:45.981Z,102753.88
2019-03-21T03:39:21.178Z,102749.98
2019-03-21T03:40:58.442Z,102752.63
2019-03-21T03:42:33.632Z,102757.95
2019-03-21T03:44:08.806Z,102758.42
2019-03-21T03:45:44.097Z,102768.03
2019-03-21T03:47:19.287Z,102764.55
2019-03-21T03:48:54.464Z,102761.13
2019-03-21T03:50:30.717Z,102765.19
2019-03-21T03:52:05.930Z,102769.55
2019-03-21T03:53:42.596Z,102763.27
2019-03-21T03:55:18.706Z,102773.70
2019-03-21T03:56:53.846Z,102770.80
2019-03-21T03:58:29.179Z,102773.14
2019-03-21T04:00:05.214Z,102774.57
2019-03-21T04:01:40.435Z,102775.90
2019-03-21T04:03:15.646Z,102774.68
2019-03-21T04:04:50.861Z,102774.92
2019-03-21T04:06:26.112Z,102775.67
2019-03-21T04:08:01.298Z,102770.92
2019-03-21T04:09:36.571Z,102775.33
2019-03-21T04:11:11.916Z,102781.00
2019-03-21T04:12:49.637Z,102776.97
2019-03-21T04:14:24.846Z,102777.99
2019-03-21T04:16:00.070Z,102778.30
2019-03-21T04:17:35.240Z,102777.44
2019-03-21T04:19:10.411Z,102780.78
2019-03-21T04:20:46.485Z,102777.41
2019-03-21T04:22:21.698Z,102777.41
2019-03-21T04:23:59.565Z,102781.14
2019-03-21T04:25:48.961Z,102771.78
2019-03-21T04:27:24.240Z,102770.17
2019-03-21T04:28:59.435Z,102776.70
2019-03-21T04:30:34.678Z,102777.01
2019-03-21T04:32:10.831Z,102781.94
2019-03-21T04:33:46.181Z,102778.30
2019-03-21T04:35:21.361Z,102776.97
2019-03-21T04:36:56.548Z,102783.86
2019-03-21T04:38:31.745Z,102774.92
2019-03-21T04:40:07.979Z,102776.59
2019-03-21T04:41:43.965Z,102782.73
2019-03-21T04:43:19.152Z,102779.89
2019-03-21T04:44:55.436Z,102785.05
2019-03-21T04:46:30.629Z,102780.14
2019-03-21T04:48:05.927Z,102782.47
2019-03-21T04:49:41.182Z,102780.92
2019-03-21T04:51:16.496Z,102788.27
2019-03-21T04:52:51.659Z,102782.77
2019-03-21T04:54:27.816Z,102783.58
2019-03-21T04:56:02.988Z,102787.17
2019-03-21T04:57:38.178Z,102786.88
2019-03-21T04:59:13.365Z,102791.75
2019-03-21T05:00:48.684Z,102788.95
2019-03-21T05:02:23.933Z,102788.87
2019-03-21T05:03:59.125Z,102788.33
2019-03-21T05:05:34.373Z,102791.66
2019-03-21T05:07:09.586Z,102790.45
2019-03-21T05:08:44.811Z,102790.02
2019-03-21T05:10:19.988Z,102784.31
2019-03-21T05:11:55.174Z,102783.42
2019-03-21T05:13:30.384Z,102787.31
2019-03-21T05:15:07.319Z,102791.61
2019-03-21T05:16:42.508Z,102786.29
2019-03-21T05:18:21.473Z,102787.62
2019-03-21T05:19:56.683Z,102790.28
2019-03-21T05:21:32.840Z,102791.92
2019-03-21T05:23:08.020Z,102797.07
2019-03-21T05:24:43.202Z,102792.05
2019-03-21T05:26:18.454Z,102793.89
2019-03-21T05:27:53.630Z,102791.67
2019-03-21T05:29:30.250Z,102795.78
2019-03-21T05:31:08.839Z,102793.39
2019-03-21T05:32:44.027Z,102792.87
2019-03-21T05:34:19.277Z,102791.27
2019-03-21T05:35:54.488Z,102799.88
2019-03-21T05:37:29.699Z,102794.59
2019-03-21T05:39:07.658Z,102797.67
2019-03-21T05:40:42.854Z,102792.45
2019-03-21T05:42:20.699Z,102797.29
2019-03-21T05:44:00.764Z,102797.50
2019-03-21T05:45:35.902Z,102803.72
2019-03-21T05:47:11.108Z,102803.27
2019-03-21T05:48:46.282Z,102801.94
2019-03-21T05:50:21.508Z,102805.16
2019-03-21T05:51:56.730Z,102804.47
2019-03-21T05:53:31.938Z,102804.88
2019-03-21T05:55:08.172Z,102807.44
2019-03-21T05:56:43.374Z,102818.47
2019-03-21T05:58:18.542Z,102810.55
2019-03-21T05:59:53.809Z,102808.50
2019-03-21T06:01:28.991Z,102812.80
2019-03-21T06:03:04.670Z,102815.88
2019-03-21T06:04:39.888Z,102822.54
2019-03-21T06:06:18.380Z,102821.72
2019-03-21T06:07:57.720Z,102821.65
2019-03-21T06:09:32.900Z,102818.13
2019-03-21T06:11:08.173Z,102816.97
2019-03-21T06:12:46.856Z,102823.38
2019-03-21T06:14:22.044Z,102819.94
2019-03-21T06:16:06.677Z,102813.55
2019-03-21T06:17:41.992Z,102819.72
2019-03-21T06:19:57.123Z,102818.80
2019-03-21T06:21:36.775Z,102822.19
2019-03-21T06:23:52.372Z,102823.74
2019-03-21T06:25:54.755Z,102823.11
2019-03-21T06:27:30.259Z,102822.70
2019-03-21T06:29:05.483Z,102810.86
2019-03-21T06:30:40.714Z,102812.36
2019-03-21T06:32:15.925Z,102820.81
2019-03-21T06:33:51.103Z,102825.40
2019-03-21T06:35:26.337Z,102826.98
2019-03-21T06:37:01.844Z,102822.49
2019-03-21T06:38:37.057Z,102817.53
2019-03-21T06:40:12.262Z,102822.89
2019-03-21T06:41:47.443Z,102819.55
2019-03-21T06:43:22.626Z,102820.97
2019-03-21T06:44:58.133Z,102827.29
2019-03-21T06:46:33.311Z,102822.84
2019-03-21T06:48:08.497Z,102823.80
2019-03-21T06:49:46.309Z,102825.45
2019-03-21T06:51:20.597Z,102818.98
2019-03-21T06:52:55.847Z,102816.38
2019-03-21T06:54:31.033Z,102816.02
2019-03-21T06:56:06.316Z,102818.69
2019-03-21T06:57:41.564Z,102824.91
2019-03-21T06:59:16.777Z,102816.53
2019-03-21T07:00:51.968Z,102816.99
2019-03-21T07:02:27.147Z,102808.23
2019-03-21T07:04:06.915Z,102811.86
2019-03-21T07:05:39.249Z,102809.70
2019-03-21T07:07:14.518Z,102808.83
2019-03-21T07:08:49.696Z,102822.63
2019-03-21T07:10:24.877Z,102823.03
2019-03-21T07:12:00.109Z,102821.56
2019-03-21T07:13:35.327Z,102815.95
2019-03-21T07:15:11.075Z,102817.80
2019-03-21T07:16:46.291Z,102826.91
2019-03-21T07:18:21.532Z,102822.11
2019-03-21T07:19:56.754Z,102827.52
2019-03-21T07:21:31.951Z,102821.14
2019-03-21T07:23:07.156Z,102823.30
2019-03-21T07:24:42.333Z,102824.99
2019-03-21T07:26:17.534Z,102825.28
2019-03-21T07:27:52.766Z,102827.19
2019-03-21T07:29:28.045Z,102827.70
2019-03-21T07:31:04.396Z,102832.17
2019-03-21T07:32:39.591Z,102831.18
2019-03-21T07:34:14.809Z,102832.09
2019-03-21T07:35:49.992Z,102834.62
2019-03-21T07:37:25.181Z,102831.41
2019-03-21T07:39:00.364Z,102831.33
2019-03-21T07:40:35.558Z,102829.72
2019-03-21T07:42:10.875Z,102830.17
2019-03-21T07:43:46.043Z,102838.02
2019-03-21T07:45:21.337Z,102832.69
2019-03-21T07:46:56.606Z,102844.27
2019-03-21T07:48:31.784Z,102832.33
2019-03-21T07:50:07.998Z,102841.70
2019-03-21T07:51:45.160Z,102835.25
2019-03-21T07:53:22.134Z,102835.17
2019-03-21T07:54:57.509Z,102839.69
2019-03-21T07:56:32.683Z,102845.16
2019-03-21T07:58:07.869Z,102843.21
2019-03-21T07:59:43.093Z,102841.88
2019-03-21T08:01:18.266Z,102839.55
2019-03-21T08:02:53.542Z,102848.13
2019-03-21T08:04:28.727Z,102846.48
2019-03-21T08:06:03.991Z,102842.44
2019-03-21T08:07:39.184Z,102847.92
2019-03-21T08:09:14.385Z,102855.11
2019-03-21T08:10:49.574Z,102855.11
2019-03-21T08:12:24.812Z,102856.91
2019-03-21T08:14:00.000Z,102856.27
2019-03-21T08:15:37.920Z,102850.45
2019-03-21T08:17:13.000Z,102849.73
2019-03-21T08:18:48.214Z,102852.40
2019-03-21T08:20:23.499Z,102855.65
2019-03-21T08:21:58.700Z,102853.00
2019-03-21T08:23:33.911Z,102845.41
2019-03-21T08:25:09.446Z,102853.95
2019-03-21T08:26:44.633Z,102853.95
2019-03-21T08:28:19.868Z,102855.48
2019-03-21T08:29:55.022Z,102854.00
2019-03-21T08:31:30.235Z,102855.78
2019-03-21T08:33:06.600Z,102853.61
2019-03-21T08:34:41.793Z,102853.61
2019-03-21T08:36:17.446Z,102859.16
2019-03-21T08:37:52.698Z,102858.72
2019-03-21T08:39:27.893Z,102852.91
2019-03-21T08:41:03.141Z,102858.05
2019-03-21T08:42:38.338Z,102859.23
2019-03-21T08:44:13.533Z,102861.47
2019-03-21T08:45:48.770Z,102854.91
2019-03-21T08:47:23.944Z,102854.05
2019-03-21T08:48:59.150Z,102856.29
2019-03-21T08:50:34.476Z,102860.34
2019-03-21T08:52:09.709Z,102859.36
2019-03-21T08:53:44.915Z,102855.70
2019-03-21T08:55:20.179Z,102855.70
2019-03-21T08:56:55.450Z,102854.59
2019-03-21T08:58:30.647Z,102853.87
2019-03-21T09:00:07.201Z,102864.11
2019-03-21T09:01:42.406Z,102867.11
2019-03-21T09:03:17.592Z,102865.66
2019-03-21T09:04:52.982Z,102867.82
2019-03-21T09:06:28.279Z,102867.82
2019-03-21T09:08:03.526Z,102868.56
2019-03-21T09:09:38.730Z,102862.35
2019-03-21T09:11:13.934Z,102856.56
2019-03-21T09:12:49.134Z,102856.56
2019-03-21T09:14:24.505Z,102859.66
2019-03-21T09:15:59.747Z,102859.66
2019-03-21T09:17:34.955Z,102860.69
2019-03-21T09:19:10.318Z,102862.22
2019-03-21T09:20:45.477Z,102858.53
2019-03-21T09:22:20.721Z,102862.99
2019-03-21T09:23:55.934Z,102862.99
2019-03-21T09:25:31.157Z,102859.95
2019-03-21T09:27:06.347Z,102860.23
2019-03-21T09:28:41.535Z,102858.31
2019-03-21T09:30:16.875Z,102859.02
2019-03-21T09:31:52.125Z,102849.55
2019-03-21T09:33:27.316Z,102846.84
2019-03-21T09:35:02.549Z,102844.27
2019-03-21T09:36:37.827Z,102850.41
2019-03-21T09:38:13.056Z,102856.78
2019-03-21T09:39:48.263Z,102856.78
2019-03-21T09:41:23.470Z,102855.12
2019-03-21T09:42:58.962Z,102855.12
2019-03-21T09:44:34.162Z,102846.47
2019-03-21T09:46:09.375Z,102849.00
2019-03-21T09:47:45.557Z,102851.23
2019-03-21T09:49:20.795Z,102857.81
2019-03-21T09:50:56.058Z,102857.81
2019-03-21T09:52:31.339Z,102863.57
2019-03-21T09:54:09.853Z,102856.56
2019-03-21T09:55:43.552Z,102859.89
2019-03-21T09:57:19.811Z,102859.89
2019-03-21T09:58:55.017Z,102860.59
2019-03-21T10:00:32.288Z,102863.15
2019-03-21T10:02:07.497Z,102859.25
2019-03-21T10:03:42.683Z,102865.31
2019-03-21T10:05:17.909Z,102865.02
2019-03-21T10:06:53.129Z,102862.61
2019-03-21T10:08:28.381Z,102866.39
2019-03-21T10:10:05.308Z,102867.00
2019-03-21T10:11:40.602Z,102863.45
2019-03-21T10:13:15.788Z,102868.62
2019-03-21T10:14:50.993Z,102858.83
2019-03-21T10:16:26.199Z,102864.78
2019-03-21T10:18:01.463Z,102863.12
2019-03-21T10:19:36.732Z,102856.07
2019-03-21T10:21:11.997Z,102857.47
2019-03-21T10:22:47.200Z,102852.67
2019-03-21T10:24:23.365Z,102859.37
2019-03-21T10:25:58.809Z,102857.20
2019-03-21T10:27:34.005Z,102864.81
2019-03-21T10:29:09.302Z,102858.05
2019-03-21T10:30:44.592Z,102860.27
2019-03-21T10:32:20.923Z,102858.67
2019-03-21T10:33:56.122Z,102851.48
2019-03-21T10:35:32.688Z,102859.78
2019-03-21T10:37:08.104Z,102854.73
2019-03-21T10:38:43.347Z,102854.13
2019-03-21T10:40:18.551Z,102857.37
2019-03-21T10:41:53.760Z,102852.66
2019-03-21T10:43:28.942Z,102848.55
2019-03-21T10:45:04.390Z,102852.60
2019-03-21T10:46:39.671Z,102850.73
2019-03-21T10:48:14.893Z,102849.03
2019-03-21T10:49:51.137Z,102858.11
2019-03-21T10:51:26.320Z,102857.80
2019-03-21T10:53:01.662Z,102855.08
2019-03-21T10:54:36.859Z,102839.61
2019-03-21T10:56:12.051Z,102852.91
2019-03-21T10:57:47.277Z,102850.69
2019-03-21T10:59:22.522Z,102845.39
2019-03-21T11:00:57.639Z,102837.25
2019-03-21T11:02:32.830Z,102840.67
2019-03-21T11:04:08.038Z,102839.84
2019-03-21T11:05:43.236Z,102837.00
2019-03-21T11:07:16.640Z,102831.50
2019-03-21T11:08:51.826Z,102831.87
2019-03-21T11:10:27.367Z,102834.72
2019-03-21T11:12:02.552Z,102831.47
2019-03-21T11:13:37.778Z,102833.23
2019-03-21T11:15:13.114Z,102833.35
2019-03-21T11:16:48.389Z,102831.36
2019-03-21T11:18:23.585Z,102828.80
2019-03-21T11:19:58.813Z,102831.66
2019-03-21T11:21:34.024Z,102822.69
2019-03-21T11:23:09.783Z,102824.79
2019-03-21T11:24:45.025Z,102817.67
2019-03-21T11:26:20.214Z,102821.48
2019-03-21T11:27:55.484Z,102819.18
2019-03-21T11:29:30.694Z,102824.30
2019-03-21T11:31:06.040Z,102815.12
2019-03-21T11:32:41.242Z,102813.21
2019-03-21T11:34:16.444Z,102812.38
2019-03-21T11:35:52.693Z,102813.66
2019-03-21T11:37:27.887Z,102812.92
2019-03-21T11:39:04.881Z,102808.92
2019-03-21T11:40:40.335Z,102813.01
2019-03-21T11:42:15.813Z,102813.01
2019-03-21T11:43:51.034Z,102801.62
2019-03-21T11:45:26.256Z,102797.38
2019-03-21T11:47:01.447Z,102801.99
2019-03-21T11:48:36.636Z,102801.99
2019-03-21T11:50:12.005Z,102797.14
2019-03-21T11:51:47.208Z,102798.02
2019-03-21T11:53:22.390Z,102796.08
2019-03-21T11:54:57.608Z,102799.16
2019-03-21T11:56:32.846Z,102797.66
2019-03-21T11:58:08.027Z,102798.68
2019-03-21T11:59:51.490Z,102792.16
2019-03-21T12:01:20.146Z,102795.95
2019-03-21T12:02:55.351Z,102799.17
2019-03-21T12:04:30.538Z,102799.17
2019-03-21T12:06:05.813Z,102795.80
2019-03-21T12:07:41.010Z,102788.11
2019-03-21T12:09:17.248Z,102789.42
2019-03-21T12:10:52.432Z,102797.23
2019-03-21T12:12:27.668Z,102794.56
2019-03-21T12:14:02.875Z,102782.73
2019-03-21T12:15:38.089Z,102780.97
2019-03-21T12:17:15.444Z,102788.18
2019-03-21T12:18:52.252Z,102786.72
2019-03-21T12:20:31.775Z,102779.14
2019-03-21T12:22:06.990Z,102785.34
2019-03-21T12:23:42.205Z,102774.33
2019-03-21T12:25:17.924Z,102774.59
2019-03-21T12:26:53.180Z,102772.14
2019-03-21T12:28:28.420Z,102772.14
2019-03-21T12:30:03.847Z,102770.70
2019-03-21T12:31:39.339Z,102770.21
2019-03-21T12:33:14.654Z,102775.41
2019-03-21T12:34:49.856Z,102768.44
2019-03-21T12:36:25.060Z,102771.95
2019-03-21T12:38:01.452Z,102776.46
2019-03-21T12:39:36.665Z,102774.73
2019-03-21T12:41:11.864Z,102777.52
2019-03-21T12:42:47.063Z,102778.19
2019-03-21T12:44:22.249Z,102778.19
2019-03-21T12:45:57.461Z,102779.10
2019-03-21T12:47:32.708Z,102769.87
2019-03-21T12:49:07.926Z,102773.29
2019-03-21T12:50:43.203Z,102764.88
2019-03-21T12:52:18.386Z,102775.31
2019-03-21T12:53:53.596Z,102766.08
2019-03-21T12:55:29.760Z,102771.12
2019-03-21T12:57:05.150Z,102765.18
2019-03-21T12:58:40.341Z,102760.21
2019-03-21T13:00:15.808Z,102760.21
2019-03-21T13:01:51.011Z,102758.58
2019-03-21T13:03:26.191Z,102763.30
2019-03-21T13:05:01.429Z,102763.88
2019-03-21T13:06:36.641Z,102760.60
2019-03-21T13:08:11.899Z,102756.61
2019-03-21T13:09:47.109Z,102753.89
2019-03-21T13:11:22.393Z,102756.63
2019-03-21T13:12:57.714Z,102748.56
2019-03-21T13:14:32.907Z,102750.19
2019-03-21T13:16:08.114Z,102743.38
2019-03-21T13:17:43.428Z,102741.13
2019-03-21T13:19:18.641Z,102744.80
2019-03-21T13:20:53.841Z,102738.03
2019-03-21T13:22:29.031Z,102738.23
2019-03-21T13:24:05.494Z,102736.32
2019-03-21T13:25:40.713Z,102732.57
2019-03-21T13:27:17.547Z,102734.33
2019-03-21T13:28:52.736Z,102729.59
2019-03-21T13:30:29.123Z,102732.83
2019-03-21T13:32:04.394Z,102729.88
2019-03-21T13:33:39.581Z,102723.36
2019-03-21T13:35:15.147Z,102723.36
2019-03-21T13:36:50.341Z,102729.48
2019-03-21T13:38:25.540Z,102728.88
2019-03-21T13:40:00.753Z,102725.61
2019-03-21T13:41:36.183Z,102724.09
2019-03-21T13:43:11.443Z,102720.27
2019-03-21T13:44:47.671Z,102722.48
2019-03-21T13:46:22.859Z,102719.46
2019-03-21T13:47:58.051Z,102722.14
2019-03-21T13:49:33.290Z,102722.72
2019-03-21T13:51:08.515Z,102722.72
2019-03-21T13:52:43.715Z,102715.95
2019-03-21T13:54:18.929Z,102722.20
2019-03-21T13:55:54.113Z,102706.79
2019-03-21T13:57:29.326Z,102706.79
2019-03-21T13:59:04.622Z,102708.08
2019-03-21T14:00:41.104Z,102701.98
2019-03-21T14:02:16.430Z,102705.07
2019-03-21T14:03:51.642Z,102698.84
2019-03-21T14:05:27.019Z,102690.38
2019-03-21T14:07:02.196Z,102693.63
2019-03-21T14:08:38.475Z,102693.06
2019-03-21T14:10:13.809Z,102691.47
2019-03-21T14:11:49.020Z,102683.56
2019-03-21T14:13:24.282Z,102689.95
2019-03-21T14:14:59.518Z,102689.95
2019-03-21T14:16:34.698Z,102671.63
2019-03-21T14:18:10.092Z,102679.00
2019-03-21T14:19:45.314Z,102677.33
2019-03-21T14:21:20.563Z,102672.72
2019-03-21T14:22:55.823Z,102673.09
2019-03-21T14:24:31.034Z,102668.03
2019-03-21T14:26:06.386Z,102666.78
2019-03-21T14:27:41.599Z,102662.86
2019-03-21T14:29:16.855Z,102662.86
2019-03-21T14:30:52.061Z,102666.16
2019-03-21T14:32:27.266Z,102659.78
2019-03-21T14:34:02.480Z,102667.72
2019-03-21T14:35:37.690Z,102667.72
2019-03-21T14:37:12.915Z,102662.05
2019-03-21T14:38:48.118Z,102656.34
2019-03-21T14:40:23.313Z,102640.78
2019-03-21T14:41:58.605Z,102640.78
2019-03-21T14:43:33.801Z,102647.50
2019-03-21T14:45:09.542Z,102647.50
2019-03-21T14:46:45.717Z,102655.33
2019-03-21T14:48:20.955Z,102655.14
2019-03-21T14:49:56.251Z,102652.34
2019-03-21T14:51:31.439Z,102652.34
2019-03-21T14:53:06.701Z,102647.50
2019-03-21T14:54:41.905Z,102647.50
2019-03-21T14:56:17.107Z,102644.83
2019-03-21T14:57:52.403Z,102638.14
2019-03-21T14:59:27.680Z,102638.14
2019-03-21T15:01:02.878Z,102652.02
2019-03-21T15:02:38.073Z,102643.38
2019-03-21T15:04:13.284Z,102643.38
2019-03-21T15:05:48.454Z,102647.41
2019-03-21T15:07:23.663Z,102650.09
2019-03-21T15:08:58.879Z,102643.75
2019-03-21T15:10:34.074Z,102642.99
2019-03-21T15:12:09.286Z,102655.41
2019-03-21T15:13:44.485Z,102657.81
2019-03-21T15:15:19.687Z,102649.75
2019-03-21T15:16:54.879Z,102649.75
2019-03-21T15:18:30.075Z,102651.86
2019-03-21T15:20:06.786Z,102656.87
2019-03-21T15:21:42.022Z,102658.74
2019-03-21T15:23:17.233Z,102649.60
2019-03-21T15:24:52.460Z,102658.41
2019-03-21T15:26:27.697Z,102658.41
2019-03-21T15:28:03.598Z,102654.48
2019-03-21T15:29:38.795Z,102666.00
2019-03-21T15:31:13.987Z,102662.19
2019-03-21T15:32:49.572Z,102662.19
2019-03-21T15:34:25.732Z,102663.48
2019-03-21T15:36:00.932Z,102666.47
2019-03-21T15:37:36.144Z,102663.83
2019-03-21T15:39:11.371Z,102657.47
2019-03-21T15:40:46.579Z,102657.47
2019-03-21T15:42:22.765Z,102665.94
2019-03-21T15:43:57.962Z,102665.72
2019-03-21T15:45:33.219Z,102665.72
2019-03-21T15:47:08.397Z,102664.59
2019-03-21T15:48:43.620Z,102665.98
2019-03-21T15:50:37.755Z,102665.98
2019-03-21T15:52:12.219Z,102664.70
2019-03-21T15:53:54.799Z,102672.68
2019-03-21T15:55:24.448Z,102672.68
2019-03-21T15:57:00.785Z,102669.12
2019-03-21T15:58:36.007Z,102670.16
2019-03-21T16:00:14.609Z,102670.16
2019-03-21T16:01:50.122Z,102669.82
2019-03-21T16:03:25.302Z,102657.67
2019-03-21T16:05:00.578Z,102666.24
2019-03-21T16:06:36.831Z,102658.72
2019-03-21T16:08:12.242Z,102658.72
2019-03-21T16:09:47.445Z,102663.80
2019-03-21T16:11:22.649Z,102666.23
2019-03-21T16:12:58.185Z,102659.30
2019-03-21T16:14:33.543Z,102660.28
2019-03-21T16:16:08.737Z,102658.13
2019-03-21T16:17:43.947Z,102670.51
2019-03-21T16:19:19.217Z,102670.51
2019-03-21T16:20:54.414Z,102658.81
2019-03-21T16:22:30.583Z,102665.03
2019-03-21T16:24:06.010Z,102656.92
2019-03-21T16:25:41.150Z,102660.86
2019-03-21T16:27:16.371Z,102659.86
2019-03-21T16:28:51.641Z,102665.92
2019-03-21T16:30:27.026Z,102665.92
2019-03-21T16:32:02.587Z,102670.23
2019-03-21T16:33:38.826Z,102670.23
2019-03-21T16:35:14.230Z,102666.75
2019-03-21T16:36:49.440Z,102663.98
2019-03-21T16:38:24.624Z,102663.98
2019-03-21T16:39:59.866Z,102652.80
2019-03-21T16:41:35.071Z,102659.22
2019-03-21T16:43:10.324Z,102659.22
2019-03-21T16:44:45.534Z,102658.52
2019-03-21T16:46:20.731Z,102652.58
2019-03-21T16:47:55.924Z,102658.08
2019-03-21T16:49:31.146Z,102651.14
2019-03-21T16:51:06.333Z,102651.14
2019-03-21T16:52:41.604Z,102656.87
2019-03-21T16:54:17.677Z,102664.15
2019-03-21T16:55:53.003Z,102667.91
2019-03-21T16:57:28.321Z,102662.55
2019-03-21T16:59:03.526Z,102663.32
2019-03-21T17:00:38.715Z,102671.02
2019-03-21T17:02:13.928Z,102671.02
2019-03-21T17:03:49.112Z,102665.36
2019-03-21T17:05:24.409Z,102664.87
2019-03-21T17:06:59.608Z,102675.50
2019-03-21T17:08:34.828Z,102671.38
2019-03-21T17:10:11.233Z,102671.38
2019-03-21T17:11:46.424Z,102668.27
2019-03-21T17:13:23.788Z,102671.05
2019-03-21T17:14:58.651Z,102668.27
2019-03-21T17:16:33.861Z,102668.27
2019-03-21T17:18:09.171Z,102662.22
2019-03-21T17:19:44.385Z,102651.91
2019-03-21T17:21:19.518Z,102661.61
2019-03-21T17:22:54.726Z,102661.61
2019-03-21T17:24:30.018Z,102658.70
2019-03-21T17:26:05.175Z,102659.00
2019-03-21T17:27:41.436Z,102662.72
2019-03-21T17:29:16.716Z,102663.25
2019-03-21T17:30:51.865Z,102661.48
2019-03-21T17:32:27.132Z,102661.48
2019-03-21T17:34:04.118Z,102666.41
2019-03-21T17:35:39.203Z,102668.65
2019-03-21T17:37:14.395Z,102665.98
2019-03-21T17:38:49.579Z,102668.50
2019-03-21T17:40:24.801Z,102668.16
2019-03-21T17:42:00.111Z,102674.06
2019-03-21T17:43:35.362Z,102674.06
2019-03-21T17:45:12.415Z,102676.03
2019-03-21T17:46:47.638Z,102665.45
2019-03-21T17:48:22.862Z,102670.45
2019-03-21T17:49:58.082Z,102664.66
2019-03-21T17:51:33.290Z,102664.66
2019-03-21T17:53:08.476Z,102666.26
2019-03-21T17:54:43.687Z,102668.09
2019-03-21T17:56:18.941Z,102662.59
2019-03-21T17:57:54.152Z,102669.86
2019-03-21T17:59:29.372Z,102670.56
2019-03-21T18:01:04.800Z,102670.56
2019-03-21T18:02:41.233Z,102670.52
2019-03-21T18:04:17.561Z,102672.53
2019-03-21T18:05:52.820Z,102668.23
2019-03-21T18:07:28.025Z,102671.31
2019-03-21T18:09:04.310Z,102662.77
2019-03-21T18:10:39.557Z,102666.21
2019-03-21T18:12:15.086Z,102671.20